sensor_id;sensor_type;location;lat;lon;timestamp;P1;durP1;ratioP1;P2;durP2;ratioP2
45049;SDS011;61798;48.048;-1.928;2023-10-09T00:00:15;7.50;;;3.47;;
45049;SDS011;61798;48.048;-1.928;2023-10-09T00:02:41;6.82;;;3.88;;
45049;SDS011;61798;48.048;-1.928;2023-10-09T00:04:49;8.98;;;3.95;;
45049;SDS011;61798;48.048;-1.928;2023-10-09T00:06:57;6.60;;;4.00;;
45049;SDS011;61798;48.048;-1.928;2023-10-09T00:09:05;7.70;;;3.92;;
45049;SDS011;61798;48.048;-1.928;2023-10-09T00:11:36;7.80;;;4.45;;
45049;SDS011;61798;48.048;-1.928;2023-10-09T00:13:47;5.38;;;3.08;;
45049;SDS011;61798;48.048;-1.928;2023-10-09T00:16:05;11.88;;;4.00;;
45049;SDS011;61798;48.048;-1.928;2023-10-09T00:18:20;7.70;;;3.67;;
45049;SDS011;61798;48.048;-1.928;2023-10-09T00:20:40;7.13;;;3.85;;
45049;SDS011;61798;48.048;-1.928;2023-10-09T00:22:48;7.68;;;3.40;;
45049;SDS011;61798;48.048;-1.928;2023-10-09T00:24:54;9.57;;;4.20;;
45049;SDS011;61798;48.048;-1.928;2023-10-09T00:27:24;6.10;;;3.72;;
45049;SDS011;61798;48.048;-1.928;2023-10-09T00:29:36;7.60;;;4.25;;
45049;SDS011;61798;48.048;-1.928;2023-10-09T00:31:50;8.77;;;4.25;;
45049;SDS011;61798;48.048;-1.928;2023-10-09T00:34:18;7.90;;;4.20;;
45049;SDS011;61798;48.048;-1.928;2023-10-09T00:36:25;7.85;;;4.00;;
45049;SDS011;61798;48.048;-1.928;2023-10-09T00:38:34;8.38;;;3.55;;
45049;SDS011;61798;48.048;-1.928;2023-10-09T00:40:52;7.55;;;4.03;;
45049;SDS011;61798;48.048;-1.928;2023-10-09T00:43:07;7.70;;;3.67;;
45049;SDS011;61798;48.048;-1.928;2023-10-09T00:45:18;5.93;;;3.58;;
45049;SDS011;61798;48.048;-1.928;2023-10-09T00:47:33;8.52;;;3.88;;
45049;SDS011;61798;48.048;-1.928;2023-10-09T00:49:40;9.82;;;4.18;;
45049;SDS011;61798;48.048;-1.928;2023-10-09T00:51:49;6.68;;;3.40;;
45049;SDS011;61798;48.048;-1.928;2023-10-09T00:54:02;8.47;;;4.07;;
45049;SDS011;61798;48.048;-1.928;2023-10-09T00:56:19;10.13;;;3.90;;
45049;SDS011;61798;48.048;-1.928;2023-10-09T00:58:31;10.55;;;3.65;;
45049;SDS011;61798;48.048;-1.928;2023-10-09T01:00:41;5.68;;;3.45;;
45049;SDS011;61798;48.048;-1.928;2023-10-09T01:02:50;7.90;;;4.05;;
45049;SDS011;61798;48.048;-1.928;2023-10-09T01:04:59;9.00;;;3.88;;
45049;SDS011;61798;48.048;-1.928;2023-10-09T01:07:05;6.95;;;3.45;;
45049;SDS011;61798;48.048;-1.928;2023-10-09T01:09:16;9.75;;;4.50;;
45049;SDS011;61798;48.048;-1.928;2023-10-09T01:11:28;5.73;;;3.40;;
45049;SDS011;61798;48.048;-1.928;2023-10-09T01:13:38;7.55;;;3.55;;
45049;SDS011;61798;48.048;-1.928;2023-10-09T01:15:47;6.53;;;3.33;;
45049;SDS011;61798;48.048;-1.928;2023-10-09T01:17:53;5.63;;;3.50;;
45049;SDS011;61798;48.048;-1.928;2023-10-09T01:19:59;9.55;;;3.92;;
45049;SDS011;61798;48.048;-1.928;2023-10-09T01:22:09;7.07;;;4.07;;
45049;SDS011;61798;48.048;-1.928;2023-10-09T01:24:18;6.88;;;3.63;;
45049;SDS011;61798;48.048;-1.928;2023-10-09T01:26:31;8.02;;;3.50;;
45049;SDS011;61798;48.048;-1.928;2023-10-09T01:28:44;5.78;;;3.33;;
45049;SDS011;61798;48.048;-1.928;2023-10-09T01:30:51;9.40;;;3.72;;
45049;SDS011;61798;48.048;-1.928;2023-10-09T01:32:57;8.88;;;4.10;;
45049;SDS011;61798;48.048;-1.928;2023-10-09T01:35:04;10.60;;;3.63;;
45049;SDS011;61798;48.048;-1.928;2023-10-09T01:37:20;6.05;;;3.38;;
45049;SDS011;61798;48.048;-1.928;2023-10-09T01:39:34;7.10;;;3.40;;
45049;SDS011;61798;48.048;-1.928;2023-10-09T01:41:45;6.72;;;3.55;;
45049;SDS011;61798;48.048;-1.928;2023-10-09T01:43:52;7.03;;;3.45;;
45049;SDS011;61798;48.048;-1.928;2023-10-09T01:46:06;5.47;;;3.25;;
45049;SDS011;61798;48.048;-1.928;2023-10-09T01:48:16;7.10;;;3.50;;
45049;SDS011;61798;48.048;-1.928;2023-10-09T01:50:29;10.63;;;4.15;;
45049;SDS011;61798;48.048;-1.928;2023-10-09T01:52:37;7.30;;;3.70;;
45049;SDS011;61798;48.048;-1.928;2023-10-09T01:54:44;5.97;;;3.40;;
45049;SDS011;61798;48.048;-1.928;2023-10-09T01:57:07;7.15;;;3.97;;
45049;SDS011;61798;48.048;-1.928;2023-10-09T01:59:17;5.85;;;3.20;;
45049;SDS011;61798;48.048;-1.928;2023-10-09T02:01:23;9.10;;;4.18;;
45049;SDS011;61798;48.048;-1.928;2023-10-09T02:03:29;5.47;;;3.08;;
45049;SDS011;61798;48.048;-1.928;2023-10-09T02:05:36;7.40;;;3.80;;
45049;SDS011;61798;48.048;-1.928;2023-10-09T02:07:42;5.55;;;3.00;;
45049;SDS011;61798;48.048;-1.928;2023-10-09T02:09:57;7.25;;;3.72;;
45049;SDS011;61798;48.048;-1.928;2023-10-09T02:12:03;6.28;;;3.50;;
45049;SDS011;61798;48.048;-1.928;2023-10-09T02:14:09;9.85;;;3.70;;
45049;SDS011;61798;48.048;-1.928;2023-10-09T02:16:35;6.88;;;3.60;;
45049;SDS011;61798;48.048;-1.928;2023-10-09T02:18:47;8.25;;;3.30;;
45049;SDS011;61798;48.048;-1.928;2023-10-09T02:23:04;7.15;;;3.33;;
45049;SDS011;61798;48.048;-1.928;2023-10-09T02:25:18;5.53;;;3.08;;
45049;SDS011;61798;48.048;-1.928;2023-10-09T02:27:27;7.53;;;3.72;;
45049;SDS011;61798;48.048;-1.928;2023-10-09T02:29:58;5.88;;;3.40;;
45049;SDS011;61798;48.048;-1.928;2023-10-09T02:32:05;5.65;;;3.67;;
45049;SDS011;61798;48.048;-1.928;2023-10-09T02:34:19;6.68;;;3.50;;
45049;SDS011;61798;48.048;-1.928;2023-10-09T02:36:29;6.88;;;3.67;;
45049;SDS011;61798;48.048;-1.928;2023-10-09T02:38:35;9.65;;;3.63;;
45049;SDS011;61798;48.048;-1.928;2023-10-09T02:40:43;7.10;;;3.55;;
45049;SDS011;61798;48.048;-1.928;2023-10-09T02:43:08;10.10;;;3.83;;
45049;SDS011;61798;48.048;-1.928;2023-10-09T02:45:23;5.40;;;3.22;;
45049;SDS011;61798;48.048;-1.928;2023-10-09T02:47:34;6.97;;;3.40;;
45049;SDS011;61798;48.048;-1.928;2023-10-09T02:49:44;6.38;;;3.63;;
45049;SDS011;61798;48.048;-1.928;2023-10-09T02:51:53;6.43;;;3.55;;
45049;SDS011;61798;48.048;-1.928;2023-10-09T02:54:00;8.20;;;4.10;;
45049;SDS011;61798;48.048;-1.928;2023-10-09T02:56:26;6.55;;;3.70;;
45049;SDS011;61798;48.048;-1.928;2023-10-09T02:58:41;9.02;;;3.83;;
45049;SDS011;61798;48.048;-1.928;2023-10-09T03:00:48;8.60;;;3.40;;
45049;SDS011;61798;48.048;-1.928;2023-10-09T03:02:54;9.70;;;4.30;;
45049;SDS011;61798;48.048;-1.928;2023-10-09T03:05:00;6.38;;;3.67;;
45049;SDS011;61798;48.048;-1.928;2023-10-09T03:07:08;8.90;;;4.07;;
45049;SDS011;61798;48.048;-1.928;2023-10-09T03:09:16;6.88;;;4.13;;
45049;SDS011;61798;48.048;-1.928;2023-10-09T03:11:22;8.30;;;3.75;;
45049;SDS011;61798;48.048;-1.928;2023-10-09T03:13:29;6.85;;;4.10;;
45049;SDS011;61798;48.048;-1.928;2023-10-09T03:15:38;8.98;;;4.50;;
45049;SDS011;61798;48.048;-1.928;2023-10-09T03:17:44;8.20;;;3.88;;
45049;SDS011;61798;48.048;-1.928;2023-10-09T03:19:50;6.97;;;3.53;;
45049;SDS011;61798;48.048;-1.928;2023-10-09T03:21:56;7.95;;;4.35;;
45049;SDS011;61798;48.048;-1.928;2023-10-09T03:24:05;6.55;;;3.70;;
45049;SDS011;61798;48.048;-1.928;2023-10-09T03:26:13;6.97;;;3.15;;
45049;SDS011;61798;48.048;-1.928;2023-10-09T03:28:19;7.80;;;3.58;;
45049;SDS011;61798;48.048;-1.928;2023-10-09T03:30:25;8.80;;;3.70;;
45049;SDS011;61798;48.048;-1.928;2023-10-09T03:32:30;13.05;;;4.03;;
45049;SDS011;61798;48.048;-1.928;2023-10-09T03:34:36;7.78;;;3.50;;
45049;SDS011;61798;48.048;-1.928;2023-10-09T03:36:42;7.28;;;3.83;;
45049;SDS011;61798;48.048;-1.928;2023-10-09T03:38:49;7.57;;;3.88;;
45049;SDS011;61798;48.048;-1.928;2023-10-09T03:40:54;5.43;;;3.35;;
45049;SDS011;61798;48.048;-1.928;2023-10-09T03:43:00;8.73;;;3.50;;
45049;SDS011;61798;48.048;-1.928;2023-10-09T03:45:06;5.72;;;3.67;;
45049;SDS011;61798;48.048;-1.928;2023-10-09T03:47:23;6.85;;;3.92;;
45049;SDS011;61798;48.048;-1.928;2023-10-09T03:49:29;8.10;;;3.42;;
45049;SDS011;61798;48.048;-1.928;2023-10-09T03:51:35;5.68;;;3.00;;
45049;SDS011;61798;48.048;-1.928;2023-10-09T03:53:42;9.15;;;3.90;;
45049;SDS011;61798;48.048;-1.928;2023-10-09T03:55:48;4.45;;;3.05;;
45049;SDS011;61798;48.048;-1.928;2023-10-09T03:57:55;12.05;;;3.63;;
45049;SDS011;61798;48.048;-1.928;2023-10-09T04:00:04;8.40;;;3.28;;
45049;SDS011;61798;48.048;-1.928;2023-10-09T04:02:14;5.75;;;3.78;;
45049;SDS011;61798;48.048;-1.928;2023-10-09T04:04:20;8.18;;;3.10;;
45049;SDS011;61798;48.048;-1.928;2023-10-09T04:06:29;5.05;;;2.97;;
45049;SDS011;61798;48.048;-1.928;2023-10-09T04:08:38;5.88;;;3.35;;
45049;SDS011;61798;48.048;-1.928;2023-10-09T04:10:52;5.57;;;3.10;;
45049;SDS011;61798;48.048;-1.928;2023-10-09T04:12:58;5.15;;;3.25;;
45049;SDS011;61798;48.048;-1.928;2023-10-09T04:15:06;4.60;;;3.08;;
45049;SDS011;61798;48.048;-1.928;2023-10-09T04:17:20;7.22;;;3.58;;
45049;SDS011;61798;48.048;-1.928;2023-10-09T04:19:39;6.13;;;3.17;;
45049;SDS011;61798;48.048;-1.928;2023-10-09T04:21:53;6.60;;;3.60;;
45049;SDS011;61798;48.048;-1.928;2023-10-09T04:24:01;6.40;;;2.97;;
45049;SDS011;61798;48.048;-1.928;2023-10-09T04:26:14;8.07;;;3.78;;
45049;SDS011;61798;48.048;-1.928;2023-10-09T04:28:20;4.70;;;3.22;;
45049;SDS011;61798;48.048;-1.928;2023-10-09T04:30:27;4.70;;;2.92;;
45049;SDS011;61798;48.048;-1.928;2023-10-09T04:32:33;5.80;;;3.22;;
45049;SDS011;61798;48.048;-1.928;2023-10-09T04:34:40;9.70;;;3.05;;
45049;SDS011;61798;48.048;-1.928;2023-10-09T04:36:57;9.48;;;3.78;;
45049;SDS011;61798;48.048;-1.928;2023-10-09T04:39:06;6.65;;;3.90;;
45049;SDS011;61798;48.048;-1.928;2023-10-09T04:41:11;6.03;;;3.78;;
45049;SDS011;61798;48.048;-1.928;2023-10-09T04:43:32;5.22;;;2.80;;
45049;SDS011;61798;48.048;-1.928;2023-10-09T04:45:38;7.22;;;3.50;;
45049;SDS011;61798;48.048;-1.928;2023-10-09T04:48:07;5.45;;;3.42;;
45049;SDS011;61798;48.048;-1.928;2023-10-09T04:50:13;6.50;;;3.22;;
45049;SDS011;61798;48.048;-1.928;2023-10-09T04:52:39;6.68;;;3.72;;
45049;SDS011;61798;48.048;-1.928;2023-10-09T04:54:46;7.45;;;3.47;;
45049;SDS011;61798;48.048;-1.928;2023-10-09T04:57:10;6.93;;;3.47;;
45049;SDS011;61798;48.048;-1.928;2023-10-09T04:59:23;7.80;;;3.63;;
45049;SDS011;61798;48.048;-1.928;2023-10-09T05:01:30;6.40;;;3.55;;
45049;SDS011;61798;48.048;-1.928;2023-10-09T05:03:42;5.95;;;3.33;;
45049;SDS011;61798;48.048;-1.928;2023-10-09T05:05:48;6.32;;;3.40;;
45049;SDS011;61798;48.048;-1.928;2023-10-09T05:08:03;5.95;;;3.28;;
45049;SDS011;61798;48.048;-1.928;2023-10-09T05:10:27;6.05;;;3.72;;
45049;SDS011;61798;48.048;-1.928;2023-10-09T05:12:33;5.78;;;3.72;;
45049;SDS011;61798;48.048;-1.928;2023-10-09T05:14:38;11.77;;;3.60;;
45049;SDS011;61798;48.048;-1.928;2023-10-09T05:16:44;6.47;;;3.22;;
45049;SDS011;61798;48.048;-1.928;2023-10-09T05:18:59;10.07;;;3.60;;
45049;SDS011;61798;48.048;-1.928;2023-10-09T05:21:05;5.75;;;3.58;;
45049;SDS011;61798;48.048;-1.928;2023-10-09T05:23:31;5.13;;;2.90;;
45049;SDS011;61798;48.048;-1.928;2023-10-09T05:25:49;11.98;;;3.67;;
45049;SDS011;61798;48.048;-1.928;2023-10-09T05:28:13;6.90;;;3.80;;
45049;SDS011;61798;48.048;-1.928;2023-10-09T05:30:36;8.23;;;4.05;;
45049;SDS011;61798;48.048;-1.928;2023-10-09T05:32:46;5.53;;;3.40;;
45049;SDS011;61798;48.048;-1.928;2023-10-09T05:34:53;6.68;;;4.13;;
45049;SDS011;61798;48.048;-1.928;2023-10-09T05:37:05;6.85;;;3.35;;
45049;SDS011;61798;48.048;-1.928;2023-10-09T05:39:30;6.70;;;3.58;;
45049;SDS011;61798;48.048;-1.928;2023-10-09T05:41:46;8.50;;;3.95;;
45049;SDS011;61798;48.048;-1.928;2023-10-09T05:44:12;7.03;;;3.83;;
45049;SDS011;61798;48.048;-1.928;2023-10-09T05:46:36;7.43;;;3.75;;
45049;SDS011;61798;48.048;-1.928;2023-10-09T05:48:42;7.32;;;3.72;;
45049;SDS011;61798;48.048;-1.928;2023-10-09T05:50:48;7.13;;;3.80;;
45049;SDS011;61798;48.048;-1.928;2023-10-09T05:53:12;8.85;;;3.85;;
45049;SDS011;61798;48.048;-1.928;2023-10-09T05:55:44;7.35;;;3.85;;
45049;SDS011;61798;48.048;-1.928;2023-10-09T05:58:28;8.23;;;3.83;;
45049;SDS011;61798;48.048;-1.928;2023-10-09T06:00:52;8.65;;;3.63;;
45049;SDS011;61798;48.048;-1.928;2023-10-09T06:03:16;7.13;;;3.63;;
45049;SDS011;61798;48.048;-1.928;2023-10-09T06:05:25;12.77;;;4.40;;
45049;SDS011;61798;48.048;-1.928;2023-10-09T06:07:46;6.88;;;3.85;;
45049;SDS011;61798;48.048;-1.928;2023-10-09T06:10:12;8.20;;;3.67;;
45049;SDS011;61798;48.048;-1.928;2023-10-09T06:12:38;7.25;;;4.10;;
45049;SDS011;61798;48.048;-1.928;2023-10-09T06:14:49;6.60;;;3.63;;
45049;SDS011;61798;48.048;-1.928;2023-10-09T06:16:55;6.57;;;3.33;;
45049;SDS011;61798;48.048;-1.928;2023-10-09T06:19:01;6.53;;;3.60;;
45049;SDS011;61798;48.048;-1.928;2023-10-09T06:21:27;5.50;;;3.63;;
45049;SDS011;61798;48.048;-1.928;2023-10-09T06:23:45;7.30;;;4.00;;
45049;SDS011;61798;48.048;-1.928;2023-10-09T06:26:14;6.47;;;3.95;;
45049;SDS011;61798;48.048;-1.928;2023-10-09T06:28:30;6.25;;;3.33;;
45049;SDS011;61798;48.048;-1.928;2023-10-09T06:30:38;5.93;;;3.40;;
45049;SDS011;61798;48.048;-1.928;2023-10-09T06:32:51;6.15;;;3.28;;
45049;SDS011;61798;48.048;-1.928;2023-10-09T06:35:03;11.90;;;3.63;;
45049;SDS011;61798;48.048;-1.928;2023-10-09T06:37:22;12.48;;;4.55;;
45049;SDS011;61798;48.048;-1.928;2023-10-09T06:39:29;5.82;;;3.55;;
45049;SDS011;61798;48.048;-1.928;2023-10-09T06:41:53;11.40;;;4.07;;
45049;SDS011;61798;48.048;-1.928;2023-10-09T06:44:14;5.53;;;3.13;;
45049;SDS011;61798;48.048;-1.928;2023-10-09T06:46:39;8.93;;;3.70;;
45049;SDS011;61798;48.048;-1.928;2023-10-09T06:48:57;5.82;;;3.08;;
45049;SDS011;61798;48.048;-1.928;2023-10-09T06:51:06;5.68;;;3.17;;
45049;SDS011;61798;48.048;-1.928;2023-10-09T06:53:32;7.25;;;3.10;;
45049;SDS011;61798;48.048;-1.928;2023-10-09T06:55:52;9.95;;;4.18;;
45049;SDS011;61798;48.048;-1.928;2023-10-09T06:58:10;9.30;;;2.92;;
45049;SDS011;61798;48.048;-1.928;2023-10-09T07:00:20;4.53;;;2.78;;
45049;SDS011;61798;48.048;-1.928;2023-10-09T07:02:45;5.75;;;2.80;;
45049;SDS011;61798;48.048;-1.928;2023-10-09T07:04:54;8.32;;;3.58;;
45049;SDS011;61798;48.048;-1.928;2023-10-09T07:07:00;11.00;;;4.28;;
45049;SDS011;61798;48.048;-1.928;2023-10-09T07:09:13;6.07;;;3.10;;
45049;SDS011;61798;48.048;-1.928;2023-10-09T07:11:20;5.82;;;3.35;;
45049;SDS011;61798;48.048;-1.928;2023-10-09T07:13:27;5.07;;;2.95;;
45049;SDS011;61798;48.048;-1.928;2023-10-09T07:15:33;5.55;;;3.03;;
45049;SDS011;61798;48.048;-1.928;2023-10-09T07:17:57;9.32;;;3.95;;
45049;SDS011;61798;48.048;-1.928;2023-10-09T07:20:23;9.07;;;3.38;;
45049;SDS011;61798;48.048;-1.928;2023-10-09T07:22:43;5.30;;;2.80;;
45049;SDS011;61798;48.048;-1.928;2023-10-09T07:24:58;5.65;;;2.72;;
45049;SDS011;61798;48.048;-1.928;2023-10-09T07:27:19;3.90;;;2.88;;
45049;SDS011;61798;48.048;-1.928;2023-10-09T07:29:45;7.30;;;3.42;;
45049;SDS011;61798;48.048;-1.928;2023-10-09T07:31:54;8.95;;;3.35;;
45049;SDS011;61798;48.048;-1.928;2023-10-09T07:34:02;5.38;;;3.13;;
45049;SDS011;61798;48.048;-1.928;2023-10-09T07:36:13;11.98;;;3.30;;
45049;SDS011;61798;48.048;-1.928;2023-10-09T07:38:25;13.80;;;3.63;;
45049;SDS011;61798;48.048;-1.928;2023-10-09T07:40:38;9.43;;;3.13;;
45049;SDS011;61798;48.048;-1.928;2023-10-09T07:43:02;7.40;;;3.50;;
45049;SDS011;61798;48.048;-1.928;2023-10-09T07:45:11;8.02;;;3.28;;
45049;SDS011;61798;48.048;-1.928;2023-10-09T07:47:37;6.72;;;3.28;;
45049;SDS011;61798;48.048;-1.928;2023-10-09T07:50:06;7.53;;;3.17;;
45049;SDS011;61798;48.048;-1.928;2023-10-09T07:52:16;6.43;;;3.17;;
45049;SDS011;61798;48.048;-1.928;2023-10-09T07:54:27;5.80;;;3.15;;
45049;SDS011;61798;48.048;-1.928;2023-10-09T07:56:42;6.05;;;2.95;;
45049;SDS011;61798;48.048;-1.928;2023-10-09T07:58:51;6.90;;;3.30;;
45049;SDS011;61798;48.048;-1.928;2023-10-09T08:00:57;6.38;;;3.60;;
45049;SDS011;61798;48.048;-1.928;2023-10-09T08:03:12;7.93;;;3.45;;
45049;SDS011;61798;48.048;-1.928;2023-10-09T08:05:29;8.98;;;3.75;;
45049;SDS011;61798;48.048;-1.928;2023-10-09T08:07:49;8.93;;;3.00;;
45049;SDS011;61798;48.048;-1.928;2023-10-09T08:10:10;6.22;;;3.05;;
45049;SDS011;61798;48.048;-1.928;2023-10-09T08:12:19;5.75;;;3.25;;
45049;SDS011;61798;48.048;-1.928;2023-10-09T08:15:00;6.53;;;3.10;;
45049;SDS011;61798;48.048;-1.928;2023-10-09T08:17:24;4.70;;;3.30;;
45049;SDS011;61798;48.048;-1.928;2023-10-09T08:19:33;8.10;;;3.85;;
45049;SDS011;61798;48.048;-1.928;2023-10-09T08:21:38;9.48;;;3.35;;
45049;SDS011;61798;48.048;-1.928;2023-10-09T08:23:47;5.55;;;3.45;;
45049;SDS011;61798;48.048;-1.928;2023-10-09T08:26:04;6.65;;;3.03;;
45049;SDS011;61798;48.048;-1.928;2023-10-09T08:28:19;5.72;;;2.78;;
45049;SDS011;61798;48.048;-1.928;2023-10-09T08:30:45;4.70;;;2.60;;
45049;SDS011;61798;48.048;-1.928;2023-10-09T08:32:55;7.60;;;3.20;;
45049;SDS011;61798;48.048;-1.928;2023-10-09T08:35:22;4.25;;;2.60;;
45049;SDS011;61798;48.048;-1.928;2023-10-09T08:37:51;8.07;;;2.45;;
45049;SDS011;61798;48.048;-1.928;2023-10-09T08:39:58;6.47;;;2.85;;
45049;SDS011;61798;48.048;-1.928;2023-10-09T08:42:04;3.92;;;2.50;;
45049;SDS011;61798;48.048;-1.928;2023-10-09T08:44:13;4.65;;;2.63;;
45049;SDS011;61798;48.048;-1.928;2023-10-09T08:46:21;5.75;;;2.42;;
45049;SDS011;61798;48.048;-1.928;2023-10-09T08:48:32;6.60;;;2.88;;
45049;SDS011;61798;48.048;-1.928;2023-10-09T08:50:38;6.68;;;3.15;;
45049;SDS011;61798;48.048;-1.928;2023-10-09T08:52:44;7.18;;;3.95;;
45049;SDS011;61798;48.048;-1.928;2023-10-09T08:54:51;5.50;;;2.75;;
45049;SDS011;61798;48.048;-1.928;2023-10-09T08:56:57;6.63;;;3.10;;
45049;SDS011;61798;48.048;-1.928;2023-10-09T08:59:03;8.65;;;3.40;;
45049;SDS011;61798;48.048;-1.928;2023-10-09T09:01:10;6.85;;;3.22;;
45049;SDS011;61798;48.048;-1.928;2023-10-09T09:03:22;4.88;;;2.63;;
45049;SDS011;61798;48.048;-1.928;2023-10-09T09:05:29;5.57;;;2.30;;
45049;SDS011;61798;48.048;-1.928;2023-10-09T09:07:35;9.73;;;3.40;;
45049;SDS011;61798;48.048;-1.928;2023-10-09T09:09:59;6.05;;;2.95;;
45049;SDS011;61798;48.048;-1.928;2023-10-09T09:12:22;7.10;;;3.22;;
45049;SDS011;61798;48.048;-1.928;2023-10-09T09:14:36;5.07;;;2.63;;
45049;SDS011;61798;48.048;-1.928;2023-10-09T09:16:42;6.07;;;2.92;;
45049;SDS011;61798;48.048;-1.928;2023-10-09T09:18:54;4.43;;;2.30;;
45049;SDS011;61798;48.048;-1.928;2023-10-09T09:21:19;13.00;;;3.60;;
45049;SDS011;61798;48.048;-1.928;2023-10-09T09:23:28;5.47;;;2.60;;
45049;SDS011;61798;48.048;-1.928;2023-10-09T09:25:43;9.35;;;3.03;;
45049;SDS011;61798;48.048;-1.928;2023-10-09T09:27:50;6.22;;;2.35;;
45049;SDS011;61798;48.048;-1.928;2023-10-09T09:30:02;4.50;;;2.33;;
45049;SDS011;61798;48.048;-1.928;2023-10-09T09:32:13;6.20;;;2.63;;
45049;SDS011;61798;48.048;-1.928;2023-10-09T09:34:25;10.93;;;3.45;;
45049;SDS011;61798;48.048;-1.928;2023-10-09T09:36:34;7.05;;;2.10;;
45049;SDS011;61798;48.048;-1.928;2023-10-09T09:38:40;15.30;;;2.63;;
45049;SDS011;61798;48.048;-1.928;2023-10-09T09:40:56;22.00;;;2.95;;
45049;SDS011;61798;48.048;-1.928;2023-10-09T09:43:02;9.82;;;2.55;;
45049;SDS011;61798;48.048;-1.928;2023-10-09T09:45:11;12.18;;;2.72;;
45049;SDS011;61798;48.048;-1.928;2023-10-09T09:47:18;11.65;;;2.50;;
45049;SDS011;61798;48.048;-1.928;2023-10-09T09:49:33;11.05;;;2.15;;
45049;SDS011;61798;48.048;-1.928;2023-10-09T09:51:39;7.07;;;2.53;;
45049;SDS011;61798;48.048;-1.928;2023-10-09T09:53:48;5.88;;;1.98;;
45049;SDS011;61798;48.048;-1.928;2023-10-09T09:55:55;6.68;;;2.03;;
45049;SDS011;61798;48.048;-1.928;2023-10-09T09:58:03;3.55;;;1.73;;
45049;SDS011;61798;48.048;-1.928;2023-10-09T10:00:13;12.50;;;2.03;;
45049;SDS011;61798;48.048;-1.928;2023-10-09T10:02:35;4.25;;;1.85;;
45049;SDS011;61798;48.048;-1.928;2023-10-09T10:04:43;5.00;;;2.03;;
45049;SDS011;61798;48.048;-1.928;2023-10-09T10:06:55;8.43;;;2.38;;
45049;SDS011;61798;48.048;-1.928;2023-10-09T10:09:09;7.82;;;2.28;;
45049;SDS011;61798;48.048;-1.928;2023-10-09T10:12:00;7.47;;;1.67;;
45049;SDS011;61798;48.048;-1.928;2023-10-09T10:18:08;6.32;;;1.90;;
45049;SDS011;61798;48.048;-1.928;2023-10-09T10:20:15;5.65;;;2.08;;
45049;SDS011;61798;48.048;-1.928;2023-10-09T10:22:24;8.57;;;2.10;;
45049;SDS011;61798;48.048;-1.928;2023-10-09T10:27:18;10.70;;;2.40;;
45049;SDS011;61798;48.048;-1.928;2023-10-09T10:29:29;10.68;;;2.17;;
45049;SDS011;61798;48.048;-1.928;2023-10-09T10:31:52;3.33;;;1.65;;
45049;SDS011;61798;48.048;-1.928;2023-10-09T10:36:12;14.38;;;2.20;;
45049;SDS011;61798;48.048;-1.928;2023-10-09T10:38:29;7.50;;;2.25;;
45049;SDS011;61798;48.048;-1.928;2023-10-09T10:40:43;14.27;;;2.53;;
45049;SDS011;61798;48.048;-1.928;2023-10-09T10:42:51;8.15;;;2.20;;
45049;SDS011;61798;48.048;-1.928;2023-10-09T10:45:17;6.65;;;2.22;;
45049;SDS011;61798;48.048;-1.928;2023-10-09T10:47:48;4.30;;;1.95;;
45049;SDS011;61798;48.048;-1.928;2023-10-09T10:49:54;5.50;;;1.80;;
45049;SDS011;61798;48.048;-1.928;2023-10-09T10:52:04;5.70;;;1.83;;
45049;SDS011;61798;48.048;-1.928;2023-10-09T10:54:25;3.67;;;1.77;;
45049;SDS011;61798;48.048;-1.928;2023-10-09T10:56:51;6.68;;;1.77;;
45049;SDS011;61798;48.048;-1.928;2023-10-09T10:58:57;6.07;;;2.13;;
45049;SDS011;61798;48.048;-1.928;2023-10-09T11:01:12;2.85;;;1.52;;
45049;SDS011;61798;48.048;-1.928;2023-10-09T11:03:19;4.43;;;1.67;;
45049;SDS011;61798;48.048;-1.928;2023-10-09T11:05:34;4.20;;;1.92;;
45049;SDS011;61798;48.048;-1.928;2023-10-09T11:07:45;2.92;;;1.67;;
45049;SDS011;61798;48.048;-1.928;2023-10-09T11:09:51;3.22;;;1.80;;
45049;SDS011;61798;48.048;-1.928;2023-10-09T11:12:10;2.92;;;1.75;;
45049;SDS011;61798;48.048;-1.928;2023-10-09T11:14:27;6.93;;;2.17;;
45049;SDS011;61798;48.048;-1.928;2023-10-09T11:16:36;6.97;;;1.80;;
45049;SDS011;61798;48.048;-1.928;2023-10-09T11:18:47;3.23;;;1.77;;
45049;SDS011;61798;48.048;-1.928;2023-10-09T11:20:54;3.58;;;1.83;;
45049;SDS011;61798;48.048;-1.928;2023-10-09T11:23:10;2.70;;;1.75;;
45049;SDS011;61798;48.048;-1.928;2023-10-09T11:25:16;2.88;;;1.70;;
45049;SDS011;61798;48.048;-1.928;2023-10-09T11:27:24;4.95;;;2.20;;
45049;SDS011;61798;48.048;-1.928;2023-10-09T11:29:35;3.55;;;1.75;;
45049;SDS011;61798;48.048;-1.928;2023-10-09T11:32:03;5.90;;;2.30;;
45049;SDS011;61798;48.048;-1.928;2023-10-09T11:34:20;3.83;;;1.70;;
45049;SDS011;61798;48.048;-1.928;2023-10-09T11:36:34;6.32;;;2.65;;
45049;SDS011;61798;48.048;-1.928;2023-10-09T11:38:40;3.67;;;1.90;;
45049;SDS011;61798;48.048;-1.928;2023-10-09T11:40:50;6.80;;;2.03;;
45049;SDS011;61798;48.048;-1.928;2023-10-09T11:43:00;4.07;;;2.05;;
45049;SDS011;61798;48.048;-1.928;2023-10-09T11:45:07;3.67;;;2.10;;
45049;SDS011;61798;48.048;-1.928;2023-10-09T11:47:33;7.50;;;2.53;;
45049;SDS011;61798;48.048;-1.928;2023-10-09T11:52:07;4.35;;;1.90;;
45049;SDS011;61798;48.048;-1.928;2023-10-09T11:54:28;6.45;;;2.05;;
45049;SDS011;61798;48.048;-1.928;2023-10-09T11:56:35;6.40;;;1.83;;
45049;SDS011;61798;48.048;-1.928;2023-10-09T11:58:41;4.47;;;1.77;;
45049;SDS011;61798;48.048;-1.928;2023-10-09T12:00:47;4.53;;;1.70;;
45049;SDS011;61798;48.048;-1.928;2023-10-09T12:02:53;5.13;;;1.92;;
45049;SDS011;61798;48.048;-1.928;2023-10-09T12:04:59;3.97;;;1.70;;
45049;SDS011;61798;48.048;-1.928;2023-10-09T12:07:04;2.45;;;1.60;;
45049;SDS011;61798;48.048;-1.928;2023-10-09T12:09:14;3.17;;;1.85;;
45049;SDS011;61798;48.048;-1.928;2023-10-09T12:11:29;3.22;;;1.83;;
45049;SDS011;61798;48.048;-1.928;2023-10-09T12:13:36;7.03;;;2.08;;
45049;SDS011;61798;48.048;-1.928;2023-10-09T12:15:48;5.85;;;1.95;;
45049;SDS011;61798;48.048;-1.928;2023-10-09T12:17:57;4.72;;;1.83;;
45049;SDS011;61798;48.048;-1.928;2023-10-09T12:20:03;5.80;;;2.20;;
45049;SDS011;61798;48.048;-1.928;2023-10-09T12:22:19;4.63;;;2.10;;
45049;SDS011;61798;48.048;-1.928;2023-10-09T12:24:27;4.65;;;2.05;;
45049;SDS011;61798;48.048;-1.928;2023-10-09T12:26:34;5.88;;;1.90;;
45049;SDS011;61798;48.048;-1.928;2023-10-09T12:28:40;3.80;;;1.55;;
45049;SDS011;61798;48.048;-1.928;2023-10-09T12:30:51;4.97;;;1.90;;
45049;SDS011;61798;48.048;-1.928;2023-10-09T12:32:57;3.90;;;1.73;;
45049;SDS011;61798;48.048;-1.928;2023-10-09T12:35:03;4.68;;;2.03;;
45049;SDS011;61798;48.048;-1.928;2023-10-09T12:37:13;3.90;;;2.20;;
45049;SDS011;61798;48.048;-1.928;2023-10-09T12:39:20;4.05;;;1.95;;
45049;SDS011;61798;48.048;-1.928;2023-10-09T12:41:27;4.05;;;1.95;;
45049;SDS011;61798;48.048;-1.928;2023-10-09T12:43:34;4.30;;;2.22;;
45049;SDS011;61798;48.048;-1.928;2023-10-09T12:45:43;8.13;;;2.03;;
45049;SDS011;61798;48.048;-1.928;2023-10-09T12:47:50;5.18;;;2.03;;
45049;SDS011;61798;48.048;-1.928;2023-10-09T12:49:56;5.45;;;2.35;;
45049;SDS011;61798;48.048;-1.928;2023-10-09T12:52:02;4.03;;;2.05;;
45049;SDS011;61798;48.048;-1.928;2023-10-09T12:54:07;4.75;;;2.20;;
45049;SDS011;61798;48.048;-1.928;2023-10-09T12:56:14;9.10;;;2.22;;
45049;SDS011;61798;48.048;-1.928;2023-10-09T12:58:21;5.18;;;1.92;;
45049;SDS011;61798;48.048;-1.928;2023-10-09T13:00:28;4.65;;;1.95;;
45049;SDS011;61798;48.048;-1.928;2023-10-09T13:02:37;11.63;;;2.50;;
45049;SDS011;61798;48.048;-1.928;2023-10-09T13:04:48;9.90;;;2.33;;
45049;SDS011;61798;48.048;-1.928;2023-10-09T13:06:54;7.20;;;1.92;;
45049;SDS011;61798;48.048;-1.928;2023-10-09T13:09:07;7.85;;;2.45;;
45049;SDS011;61798;48.048;-1.928;2023-10-09T13:11:13;7.57;;;2.13;;
45049;SDS011;61798;48.048;-1.928;2023-10-09T13:13:22;4.50;;;2.30;;
45049;SDS011;61798;48.048;-1.928;2023-10-09T13:15:28;11.95;;;2.47;;
45049;SDS011;61798;48.048;-1.928;2023-10-09T13:17:34;7.70;;;2.47;;